createdAt,value
2023-06-11T00:00:10.741Z,95923.30
2023-06-11T00:02:58.935Z,95923.79
2023-06-11T00:05:29.171Z,95919.90
2023-06-11T00:08:01.757Z,95922.27
2023-06-11T00:10:29.718Z,95921.75
2023-06-11T00:12:58.429Z,95922.27
2023-06-11T00:15:26.759Z,95921.06
2023-06-11T00:20:23.803Z,95917.11
2023-06-11T00:22:52.023Z,95918.50
2023-06-11T00:25:20.439Z,95917.66
2023-06-11T00:27:48.869Z,95917.10
2023-06-11T00:30:18.327Z,95917.32
2023-06-11T00:32:47.306Z,95916.90
2023-06-11T00:35:15.540Z,95914.34
2023-06-11T00:37:44.224Z,95910.30
2023-06-11T00:40:14.055Z,95909.53
2023-06-11T00:42:42.227Z,95910.52
2023-06-11T00:45:11.442Z,95909.69
2023-06-11T00:47:40.532Z,95912.38
2023-06-11T00:50:09.773Z,95915.91
2023-06-11T00:52:37.853Z,95917.00
2023-06-11T00:55:07.729Z,95916.52
2023-06-11T00:57:37.064Z,95917.27
2023-06-11T01:00:09.526Z,95914.93
2023-06-11T01:02:47.398Z,95914.55
2023-06-11T01:05:19.577Z,95912.89
2023-06-11T01:07:52.947Z,95910.40
2023-06-11T01:10:30.699Z,95912.46
2023-06-11T01:12:59.820Z,95913.10
2023-06-11T01:15:28.209Z,95910.88
2023-06-11T01:18:07.056Z,95912.45
2023-06-11T01:20:43.201Z,95911.88
2023-06-11T01:23:35.025Z,95912.29
2023-06-11T01:26:25.365Z,95913.29
2023-06-11T01:28:57.632Z,95919.78
2023-06-11T01:31:30.703Z,95915.73
2023-06-11T01:33:59.454Z,95917.69
2023-06-11T01:36:38.099Z,95914.46
2023-06-11T01:39:08.022Z,95915.11
2023-06-11T01:41:55.760Z,95918.27
2023-06-11T01:44:26.486Z,95919.94
2023-06-11T01:46:56.176Z,95915.20
2023-06-11T01:49:28.027Z,95914.27
2023-06-11T01:51:56.311Z,95910.60
2023-06-11T01:54:24.398Z,95907.13
2023-06-11T01:56:52.485Z,95909.73
2023-06-11T01:59:22.393Z,95910.42
2023-06-11T02:01:54.325Z,95911.01
2023-06-11T02:04:23.462Z,95913.12
2023-06-11T02:06:51.889Z,95916.02
2023-06-11T02:09:20.674Z,95915.24
2023-06-11T02:11:49.054Z,95917.46
2023-06-11T02:14:17.551Z,95914.73
2023-06-11T02:16:45.762Z,95917.73
2023-06-11T02:19:14.219Z,95916.11
2023-06-11T02:21:42.223Z,95917.11
2023-06-11T02:24:11.139Z,95915.97
2023-06-11T02:26:39.356Z,95916.77
2023-06-11T02:29:07.459Z,95918.29
2023-06-11T02:31:35.523Z,95921.04
2023-06-11T02:34:04.352Z,95919.67
2023-06-11T02:36:32.256Z,95915.27
2023-06-11T02:39:02.597Z,95915.80
2023-06-11T02:42:00.984Z,95913.45
2023-06-11T02:45:30.110Z,95914.25
2023-06-11T02:48:52.977Z,95920.85
2023-06-11T02:51:48.077Z,95917.86
2023-06-11T02:55:12.154Z,95919.77
2023-06-11T02:58:34.046Z,95922.19
2023-06-11T03:02:11.096Z,95922.20
2023-06-11T03:05:19.991Z,95918.71
2023-06-11T03:08:46.004Z,95917.34
2023-06-11T03:12:14.072Z,95917.39
2023-06-11T03:15:18.983Z,95915.05
2023-06-11T03:18:41.047Z,95915.77
2023-06-11T03:22:13.971Z,95915.35
2023-06-11T03:25:28.080Z,95917.86
2023-06-11T03:28:36.044Z,95916.58
2023-06-11T03:31:52.192Z,95917.40
2023-06-11T03:35:13.284Z,95914.00
2023-06-11T03:37:57.265Z,95917.98
2023-06-11T03:40:26.541Z,95920.27
2023-06-11T03:42:55.264Z,95919.45
2023-06-11T03:45:23.735Z,95919.70
2023-06-11T03:47:54.048Z,95923.67
2023-06-11T03:50:22.217Z,95922.09
2023-06-11T03:52:50.416Z,95920.23
2023-06-11T03:55:18.642Z,95926.14
2023-06-11T03:57:46.609Z,95926.22
2023-06-11T04:00:15.173Z,95919.50
2023-06-11T04:02:43.626Z,95916.33
2023-06-11T04:05:12.985Z,95915.28
2023-06-11T04:07:42.291Z,95920.88
2023-06-11T04:10:10.970Z,95921.23
2023-06-11T04:12:38.890Z,95927.02
2023-06-11T04:15:07.913Z,95924.84
2023-06-11T04:17:36.045Z,95925.02
2023-06-11T04:20:06.552Z,95926.85
2023-06-11T04:22:34.735Z,95926.83
2023-06-11T04:25:03.176Z,95923.52
2023-06-11T04:27:37.667Z,95922.35
2023-06-11T04:30:23.059Z,95925.41
2023-06-11T04:33:29.024Z,95923.04
2023-06-11T04:36:27.050Z,95924.10
2023-06-11T04:39:36.154Z,95923.23
2023-06-11T04:42:17.197Z,95922.27
2023-06-11T04:44:48.793Z,95922.80
2023-06-11T04:47:16.807Z,95925.16
2023-06-11T04:49:54.163Z,95924.72
2023-06-11T04:52:22.862Z,95923.49
2023-06-11T04:54:51.100Z,95924.13
2023-06-11T04:57:19.068Z,95926.27
2023-06-11T04:59:50.481Z,95925.80
2023-06-11T05:02:19.522Z,95926.81
2023-06-11T05:04:50.557Z,95932.20
2023-06-11T05:07:18.654Z,95936.05
2023-06-11T05:09:46.842Z,95934.84
2023-06-11T05:12:14.864Z,95936.91
2023-06-11T05:14:44.312Z,95938.58
2023-06-11T05:17:12.493Z,95938.80
2023-06-11T05:19:42.250Z,95941.26
2023-06-11T05:22:10.377Z,95944.70
2023-06-11T05:24:42.564Z,95944.45
2023-06-11T05:27:10.914Z,95941.83
2023-06-11T05:29:39.073Z,95945.19
2023-06-11T05:32:09.656Z,95941.19
2023-06-11T05:34:38.441Z,95946.02
2023-06-11T05:37:10.024Z,95949.28
2023-06-11T05:39:38.055Z,95951.70
2023-06-11T05:42:07.511Z,95953.75
2023-06-11T05:44:35.899Z,95954.00
2023-06-11T05:47:04.459Z,95955.52
2023-06-11T05:49:32.405Z,95959.00
2023-06-11T05:52:00.451Z,95958.83
2023-06-11T05:54:28.604Z,95959.73
2023-06-11T05:56:58.022Z,95955.50
2023-06-11T05:59:26.114Z,95958.27
2023-06-11T06:01:54.284Z,95960.33
2023-06-11T06:04:23.200Z,95962.77
2023-06-11T06:06:51.538Z,95963.70
2023-06-11T06:09:19.407Z,95960.14
2023-06-11T06:11:47.785Z,95960.13
2023-06-11T06:14:16.395Z,95960.67
2023-06-11T06:16:44.795Z,95964.16
2023-06-11T06:19:15.257Z,95968.14
2023-06-11T06:21:43.626Z,95971.63
2023-06-11T06:24:12.658Z,95971.51
2023-06-11T06:26:42.064Z,95969.70
2023-06-11T06:29:10.668Z,95961.47
2023-06-11T06:31:39.175Z,95964.53
2023-06-11T06:34:08.805Z,95963.38
2023-06-11T06:36:38.322Z,95963.39
2023-06-11T06:39:06.492Z,95959.97
2023-06-11T06:41:34.391Z,95958.52
2023-06-11T06:44:08.525Z,95952.19
2023-06-11T06:46:36.605Z,95951.50
2023-06-11T06:49:04.520Z,95959.08
2023-06-11T06:51:33.858Z,95960.52
2023-06-11T06:54:02.395Z,95961.64
2023-06-11T06:56:30.738Z,95965.52
2023-06-11T06:58:58.624Z,95966.35
2023-06-11T07:01:28.104Z,95966.66
2023-06-11T07:03:56.543Z,95968.99
2023-06-11T07:06:26.117Z,95969.82
2023-06-11T07:08:54.597Z,95969.31
2023-06-11T07:11:23.316Z,95967.73
2023-06-11T07:13:51.373Z,95965.76
2023-06-11T07:16:19.975Z,95964.23
2023-06-11T07:18:53.324Z,95963.47
2023-06-11T07:21:21.226Z,95967.58
2023-06-11T07:23:49.226Z,95969.35
2023-06-11T07:26:19.198Z,95968.86
2023-06-11T07:28:47.661Z,95968.74
2023-06-11T07:31:15.643Z,95966.98
2023-06-11T07:33:45.394Z,95961.39
2023-06-11T07:36:13.570Z,95958.74
2023-06-11T07:38:43.710Z,95956.98
2023-06-11T07:41:12.688Z,95956.37
2023-06-11T07:43:40.727Z,95956.05
2023-06-11T07:46:09.795Z,95959.84
2023-06-11T07:48:42.349Z,95957.25
2023-06-11T07:51:10.337Z,95962.02
2023-06-11T07:53:39.463Z,95962.96
2023-06-11T07:56:08.966Z,95965.08
2023-06-11T07:58:37.220Z,95965.00
2023-06-11T08:01:05.041Z,95964.84
2023-06-11T08:03:34.667Z,95963.17
2023-06-11T08:06:03.020Z,95961.20
2023-06-11T08:08:30.963Z,95960.96
2023-06-11T08:10:58.962Z,95956.54
2023-06-11T08:13:26.922Z,95956.53
2023-06-11T08:15:55.233Z,95958.32
2023-06-11T08:18:23.298Z,95956.33
2023-06-11T08:21:32.031Z,95954.36
2023-06-11T08:24:25.334Z,95955.98
2023-06-11T08:28:03.135Z,95950.89
2023-06-11T08:31:10.088Z,95954.08
2023-06-11T08:34:37.107Z,95954.35
2023-06-11T08:37:41.082Z,95950.30
2023-06-11T08:41:04.029Z,95950.05
2023-06-11T08:44:04.105Z,95951.98
2023-06-11T08:47:18.077Z,95945.78
2023-06-11T08:50:41.127Z,95946.60
2023-06-11T08:53:59.029Z,95942.44
2023-06-11T08:56:53.854Z,95938.59
2023-06-11T09:00:22.282Z,95936.91
2023-06-11T09:03:27.520Z,95931.80
2023-06-11T09:06:35.747Z,95931.19
2023-06-11T09:09:33.939Z,95926.94
2023-06-11T09:13:00.784Z,95923.70
2023-06-11T09:16:08.626Z,95923.83
2023-06-11T09:19:14.297Z,95922.26
2023-06-11T09:22:22.395Z,95927.80
2023-06-11T09:25:24.077Z,95929.30
2023-06-11T09:28:12.604Z,95933.73
2023-06-11T09:31:06.828Z,95935.67
2023-06-11T09:34:28.027Z,95938.34
2023-06-11T09:37:21.036Z,95933.67
2023-06-11T09:40:10.194Z,95933.36
2023-06-11T09:42:39.107Z,95932.57
2023-06-11T09:45:14.772Z,95928.26
2023-06-11T09:47:45.145Z,95927.77
2023-06-11T09:50:18.825Z,95929.18
2023-06-11T09:52:47.186Z,95926.73
2023-06-11T09:55:15.930Z,95920.56
2023-06-11T09:57:44.607Z,95918.45
2023-06-11T10:00:14.682Z,95914.55
2023-06-11T10:02:43.962Z,95910.44
2023-06-11T10:05:14.183Z,95902.71
2023-06-11T10:08:06.505Z,95901.00
2023-06-11T10:10:39.789Z,95901.34
2023-06-11T10:13:07.991Z,95893.45
2023-06-11T10:15:38.525Z,95896.42
2023-06-11T10:18:15.239Z,95901.50
2023-06-11T10:20:53.539Z,95903.84
2023-06-11T10:23:22.300Z,95902.98
2023-06-11T10:25:55.973Z,95902.04
2023-06-11T10:28:37.425Z,95900.05
2023-06-11T10:31:06.381Z,95901.43
2023-06-11T10:33:42.990Z,95901.96
2023-06-11T10:36:22.366Z,95901.05
2023-06-11T10:38:50.883Z,95901.09
2023-06-11T10:41:37.030Z,95901.41
2023-06-11T10:44:05.074Z,95899.84
2023-06-11T10:46:33.064Z,95903.50
2023-06-11T10:49:01.367Z,95903.81
2023-06-11T10:51:40.783Z,95906.52
2023-06-11T10:54:08.762Z,95907.39
2023-06-11T10:56:39.350Z,95907.89
2023-06-11T10:59:10.330Z,95907.93
2023-06-11T11:01:38.614Z,95906.58
2023-06-11T11:04:07.044Z,95905.02
2023-06-11T11:06:37.915Z,95901.59
2023-06-11T11:09:06.264Z,95900.17
2023-06-11T11:11:34.414Z,95894.65
2023-06-11T11:14:02.523Z,95893.77
2023-06-11T11:16:30.612Z,95895.02
2023-06-11T11:18:58.693Z,95893.09
2023-06-11T11:21:29.766Z,95891.97
2023-06-11T11:23:58.244Z,95889.80
2023-06-11T11:26:27.535Z,95889.66
2023-06-11T11:28:56.051Z,95888.94
2023-06-11T11:31:24.329Z,95880.52
2023-06-11T11:33:52.354Z,95879.66
2023-06-11T11:36:23.411Z,95881.23
2023-06-11T11:38:51.779Z,95879.94
2023-06-11T11:41:24.135Z,95881.30
2023-06-11T11:43:52.387Z,95879.08
2023-06-11T11:46:24.708Z,95878.70
2023-06-11T11:48:57.122Z,95876.95
2023-06-11T11:51:26.764Z,95874.55
2023-06-11T11:53:55.138Z,95875.43
2023-06-11T11:56:33.536Z,95876.73
2023-06-11T12:09:47.057Z,95886.49
2023-06-11T12:21:01.644Z,95892.60
2023-06-11T12:35:15.034Z,95897.90
2023-06-11T12:39:38.103Z,95899.58
2023-06-11T12:46:54.346Z,95893.11
2023-06-11T12:58:58.157Z,95881.13
2023-06-11T13:03:19.022Z,95880.95
2023-06-11T13:19:47.084Z,95893.46
2023-06-11T13:42:55.131Z,95927.48
2023-06-11T13:46:42.633Z,95939.52
2023-06-11T13:53:40.483Z,95942.14
2023-06-11T14:01:01.241Z,95930.10
2023-06-11T14:08:19.260Z,95938.03
2023-06-11T14:19:53.136Z,95941.43
2023-06-11T14:23:43.204Z,95944.51
2023-06-11T14:27:13.529Z,95944.45
2023-06-11T14:30:56.748Z,95940.41
2023-06-11T14:57:59.146Z,95943.97
2023-06-11T15:08:08.041Z,95952.05
2023-06-11T15:10:50.905Z,95957.23
2023-06-11T15:13:30.447Z,95963.61
2023-06-11T15:16:19.735Z,95969.18
2023-06-11T15:19:09.012Z,95979.66
2023-06-11T15:22:09.959Z,95992.71
2023-06-11T15:24:38.130Z,96001.13
2023-06-11T15:27:06.712Z,96002.89
2023-06-11T15:29:34.749Z,96005.38
2023-06-11T15:32:03.627Z,96004.46
2023-06-11T15:34:31.740Z,96009.13
2023-06-11T15:36:59.915Z,96006.00
2023-06-11T15:39:33.174Z,96000.63
2023-06-11T15:42:03.294Z,95997.54
2023-06-11T15:44:32.076Z,95998.29
2023-06-11T15:47:00.345Z,95995.48
2023-06-11T15:49:28.327Z,95993.39
2023-06-11T15:51:58.584Z,95994.83
2023-06-11T15:54:26.586Z,95997.35
2023-06-11T15:56:54.618Z,96001.60
2023-06-11T15:59:22.722Z,96000.11
2023-06-11T16:01:53.084Z,95995.90
2023-06-11T16:04:21.403Z,95994.40
2023-06-11T16:06:49.876Z,95993.42
2023-06-11T16:09:18.156Z,95991.25
2023-06-11T16:11:46.048Z,95993.17
2023-06-11T16:14:16.807Z,95996.13
2023-06-11T16:16:44.747Z,95998.30
2023-06-11T16:19:12.651Z,96002.27
2023-06-11T16:21:40.636Z,96008.44
2023-06-11T16:24:09.644Z,96015.73
2023-06-11T16:26:37.698Z,96023.66
2023-06-11T16:29:05.651Z,96028.80
2023-06-11T16:31:33.686Z,96038.64
2023-06-11T16:34:01.971Z,96040.65
2023-06-11T16:36:30.673Z,96044.10
2023-06-11T16:39:09.465Z,96040.96
2023-06-11T16:41:47.408Z,96043.33
2023-06-11T16:44:15.773Z,96043.48
2023-06-11T16:46:44.065Z,96049.24
2023-06-11T16:49:12.014Z,96056.27
2023-06-11T16:51:40.836Z,96057.86
2023-06-11T16:54:08.982Z,96056.09
2023-06-11T16:56:36.918Z,96055.40
2023-06-11T16:59:07.853Z,96056.83
2023-06-11T17:01:36.428Z,96059.71
2023-06-11T17:04:07.513Z,96055.63
2023-06-11T17:06:35.603Z,96054.61
2023-06-11T17:09:03.753Z,96056.16
2023-06-11T17:11:32.100Z,96055.52
2023-06-11T17:14:00.249Z,96051.33
2023-06-11T17:16:30.220Z,96052.25
2023-06-11T17:18:58.473Z,96049.63
2023-06-11T17:21:26.634Z,96049.68
2023-06-11T17:23:58.521Z,96048.99
2023-06-11T17:26:29.393Z,96042.36
2023-06-11T17:28:57.340Z,96038.15
2023-06-11T17:31:25.685Z,96035.88
2023-06-11T17:33:53.840Z,96032.30
2023-06-11T17:36:23.442Z,96033.80
2023-06-11T17:38:51.561Z,96029.20
2023-06-11T17:41:19.970Z,96030.02
2023-06-11T17:43:47.985Z,96034.00
2023-06-11T17:46:18.440Z,96035.55
2023-06-11T17:48:46.562Z,96031.86
2023-06-11T17:51:14.777Z,96032.20
2023-06-11T17:53:43.198Z,96035.63
2023-06-11T17:56:14.953Z,96041.55
2023-06-11T17:58:45.097Z,96042.64
2023-06-11T18:01:20.811Z,96046.41
2023-06-11T18:03:51.262Z,96042.69
2023-06-11T18:06:19.520Z,96044.17
2023-06-11T18:08:47.810Z,96046.76
2023-06-11T18:11:20.994Z,96049.27
2023-06-11T18:13:49.454Z,96048.98
2023-06-11T18:16:17.842Z,96049.31
2023-06-11T18:18:46.086Z,96052.34
2023-06-11T18:21:14.536Z,96052.31
2023-06-11T18:23:44.524Z,96048.24
2023-06-11T18:26:13.208Z,96044.18
2023-06-11T18:28:42.044Z,96051.23
2023-06-11T18:31:10.208Z,96055.95
2023-06-11T18:33:39.218Z,96058.86
2023-06-11T18:36:07.781Z,96055.39
2023-06-11T18:38:37.481Z,96054.55
2023-06-11T18:41:05.770Z,96056.54
2023-06-11T18:44:19.336Z,96052.02
2023-06-11T18:46:47.375Z,96052.29
2023-06-11T18:49:15.833Z,96049.89
2023-06-11T18:51:44.148Z,96053.01
2023-06-11T18:54:12.225Z,96051.67
2023-06-11T18:56:40.397Z,96053.08
2023-06-11T18:59:08.367Z,96049.83
2023-06-11T19:01:36.331Z,96047.62
2023-06-11T19:04:04.411Z,96049.20
2023-06-11T19:06:32.789Z,96046.00
2023-06-11T19:09:00.722Z,96050.04
2023-06-11T19:11:28.635Z,96052.87
2023-06-11T19:13:57.328Z,96050.52
2023-06-11T19:16:30.080Z,96048.08
2023-06-11T19:19:00.882Z,96054.54
2023-06-11T19:21:29.040Z,96053.61
2023-06-11T19:23:58.089Z,96053.73
2023-06-11T19:26:26.641Z,96051.60
2023-06-11T19:28:55.525Z,96047.65
2023-06-11T19:31:23.811Z,96044.36
2023-06-11T19:33:51.827Z,96046.38
2023-06-11T19:36:21.525Z,96046.33
2023-06-11T19:38:54.315Z,96044.41
2023-06-11T19:41:22.353Z,96037.34
2023-06-11T19:43:50.830Z,96036.73
2023-06-11T19:46:26.380Z,96038.64
2023-06-11T19:48:58.259Z,96032.85
2023-06-11T19:51:27.620Z,96034.16
2023-06-11T19:53:59.849Z,96037.38
2023-06-11T19:56:32.342Z,96038.38
2023-06-11T19:59:02.484Z,96040.02
2023-06-11T20:01:31.179Z,96041.83
2023-06-11T20:04:15.742Z,96044.00
2023-06-11T20:06:45.281Z,96044.85
2023-06-11T20:09:16.269Z,96041.33
2023-06-11T20:11:44.580Z,96041.60
2023-06-11T20:14:13.204Z,96044.35
2023-06-11T20:16:41.501Z,96043.44
2023-06-11T20:19:10.668Z,96043.42
2023-06-11T20:21:39.035Z,96045.11
2023-06-11T20:24:07.894Z,96043.80
2023-06-11T20:26:37.153Z,96047.52
2023-06-11T20:29:05.412Z,96055.14
2023-06-11T20:31:34.143Z,96059.77
2023-06-11T20:34:02.071Z,96063.73
2023-06-11T20:36:30.778Z,96057.89
2023-06-11T20:38:58.837Z,96054.54
2023-06-11T20:41:27.341Z,96053.25
2023-06-11T20:43:55.495Z,96051.92
2023-06-11T20:48:54.663Z,96050.81
2023-06-11T20:51:22.662Z,96051.52
2023-06-11T20:53:50.670Z,96052.47
2023-06-11T20:56:20.038Z,96050.75
2023-06-11T20:58:48.536Z,96054.84
2023-06-11T21:01:16.969Z,96054.30
2023-06-11T21:03:45.180Z,96057.74
2023-06-11T21:06:13.406Z,96053.10
2023-06-11T21:08:45.964Z,96050.85
2023-06-11T21:11:18.119Z,96051.64
2023-06-11T21:13:53.853Z,96051.42
2023-06-11T21:16:28.127Z,96047.31
2023-06-11T21:18:58.461Z,96046.98
2023-06-11T21:21:26.395Z,96040.58
2023-06-11T21:23:54.402Z,96042.14
2023-06-11T21:26:22.368Z,96044.30
2023-06-11T21:28:50.301Z,96043.99
2023-06-11T21:31:18.248Z,96044.80
2023-06-11T21:33:46.264Z,96042.03
2023-06-11T21:36:14.158Z,96038.75
2023-06-11T21:38:42.110Z,96033.89
2023-06-11T21:41:11.747Z,96033.93
2023-06-11T21:43:40.059Z,96030.15
2023-06-11T21:46:08.358Z,96030.00
2023-06-11T21:48:36.496Z,96026.92
2023-06-11T21:51:04.692Z,96026.66
2023-06-11T21:53:32.731Z,96029.72
2023-06-11T21:56:00.893Z,96030.08
2023-06-11T21:58:28.875Z,96026.27
2023-06-11T22:00:57.021Z,96031.69
2023-06-11T22:03:27.535Z,96028.09
2023-06-11T22:05:58.932Z,96024.84
2023-06-11T22:08:26.945Z,96021.63
2023-06-11T22:10:55.464Z,96020.36
2023-06-11T22:13:23.270Z,96020.27
2023-06-11T22:15:51.350Z,96024.85
2023-06-11T22:18:22.772Z,96021.95
2023-06-11T22:20:50.658Z,96022.27
2023-06-11T22:23:18.744Z,96023.23
2023-06-11T22:25:46.736Z,96023.94
2023-06-11T22:28:14.695Z,96023.02
2023-06-11T22:30:56.387Z,96022.84
2023-06-11T22:33:25.807Z,96024.29
2023-06-11T22:35:53.737Z,96028.88
2023-06-11T22:38:21.976Z,96028.27
2023-06-11T22:40:50.770Z,96029.61
2023-06-11T22:43:18.841Z,96035.57
2023-06-11T22:45:46.911Z,96033.42
2023-06-11T22:48:14.884Z,96034.19
2023-06-11T22:50:42.797Z,96037.75
2023-06-11T22:53:14.705Z,96035.31
2023-06-11T22:55:43.640Z,96032.63
2023-06-11T22:58:11.627Z,96030.23
2023-06-11T23:00:40.135Z,96027.54
2023-06-11T23:03:09.018Z,96024.73
2023-06-11T23:05:39.349Z,96023.70
2023-06-11T23:08:07.673Z,96023.20
2023-06-11T23:10:35.827Z,96019.52
2023-06-11T23:13:03.898Z,96018.20
2023-06-11T23:15:31.728Z,96019.06
2023-06-11T23:18:06.133Z,96019.34
2023-06-11T23:20:36.427Z,96016.77
2023-06-11T23:23:06.604Z,96016.36
2023-06-11T23:25:35.015Z,96010.30
2023-06-11T23:28:02.973Z,96007.77
2023-06-11T23:31:08.186Z,96006.36
2023-06-11T23:34:25.281Z,96003.24
2023-06-11T23:37:40.232Z,96002.16
2023-06-11T23:41:05.272Z,95998.02
2023-06-11T23:44:03.594Z,95997.65
2023-06-11T23:47:21.209Z,95996.30
2023-06-11T23:50:27.231Z,95996.26
2023-06-11T23:53:42.243Z,95997.80
2023-06-11T23:56:51.229Z,95992.86
